Terminal Aerodrome Forecast
Issued by NWS

Home | Current Version | Previous Version | Text Only | Print | Product List | Glossary On
Versions: 1 2 3 4 5 6 7 8 9 10 11 12 13 14 15 16 17 18
000
FTUS43 KMQT 240538
TAFSAW
TAF
KSAW 240538Z 2406/2506 36005KT P6SM OVC003
     FM240800 01005KT P6SM VCSH OVC003
     FM241400 03007KT P6SM OVC003
     FM241600 03009KT P6SM BKN008
     FM241700 03009KT P6SM BKN010
     FM250100 02005KT P6SM BKN020
     FM250500 01004KT P6SM BKN035=

USA.gov is the U.S. government's official web portal to all federal, state and local government web resources and services.